TimeCDT,TemperatureF,Dew PointF,Humidity,Sea Level PressureIn,VisibilityMPH,Wind Direction,Wind SpeedMPH,Gust SpeedMPH,PrecipitationIn,Events,Conditions,WindDirDegrees,DateUTC
12:53 AM,77.0,69.1,76,30.03,10.0,ENE,5.8,-,N/A,,Clear,60,2013-08-05 05:53:00
1:53 AM,75.0,70.0,84,30.02,10.0,NNE,5.8,-,N/A,,Clear,30,2013-08-05 06:53:00
2:53 AM,75.0,69.1,82,30.03,10.0,NNE,4.6,-,N/A,,Clear,30,2013-08-05 07:53:00
3:53 AM,75.0,69.1,82,30.03,10.0,Calm,Calm,-,N/A,,Clear,0,2013-08-05 08:53:00
4:53 AM,75.0,69.1,82,30.03,10.0,NE,4.6,-,N/A,,Overcast,40,2013-08-05 09:53:00
5:53 AM,73.9,69.1,85,30.05,10.0,North,4.6,-,N/A,,Overcast,10,2013-08-05 10:53:00
6:53 AM,72.0,69.1,91,30.06,2.5,NNE,5.8,-,0.01,Rain,Heavy Rain,30,2013-08-05 11:53:00
7:02 AM,71.6,69.8,94,30.08,5.0,ENE,5.8,-,0.07,Rain,Rain,60,2013-08-05 12:02:00
7:53 AM,73.0,69.1,87,30.07,8.0,NNE,5.8,-,0.09,,Overcast,30,2013-08-05 12:53:00
8:53 AM,73.9,68.0,82,30.06,10.0,Calm,Calm,-,0.00,,Overcast,0,2013-08-05 13:53:00
9:53 AM,77.0,69.1,76,30.05,10.0,Variable,3.5,-,N/A,,Partly Cloudy,0,2013-08-05 14:53:00
10:53 AM,81.0,71.1,72,30.04,10.0,Variable,4.6,-,N/A,,Mostly Cloudy,0,2013-08-05 15:53:00
11:53 AM,84.0,70.0,63,30.04,10.0,South,3.5,-,N/A,,Overcast,190,2013-08-05 16:53:00
12:53 PM,87.1,70.0,57,30.02,10.0,Calm,Calm,-,N/A,,Overcast,0,2013-08-05 17:53:00
1:53 PM,89.1,71.1,55,30.00,10.0,WSW,3.5,-,N/A,,Mostly Cloudy,250,2013-08-05 18:53:00
2:53 PM,87.1,72.0,61,29.98,10.0,ENE,4.6,-,N/A,,Scattered Clouds,70,2013-08-05 19:53:00
3:53 PM,88.0,73.9,63,29.96,10.0,Variable,5.8,-,N/A,,Clear,0,2013-08-05 20:53:00
4:53 PM,86.0,73.0,65,29.96,10.0,ENE,8.1,-,N/A,Thunderstorm,Thunderstorm,60,2013-08-05 21:53:00
5:15 PM,84.2,73.4,70,29.98,10.0,ENE,6.9,-,N/A,,Scattered Clouds,60,2013-08-05 22:15:00
5:24 PM,84.2,73.4,70,29.98,10.0,NE,8.1,-,N/A,Thunderstorm,Thunderstorm,40,2013-08-05 22:24:00
5:53 PM,82.0,75.9,82,29.96,4.0,East,4.6,-,0.06,Rain-Thunderstorm,Light Thunderstorms and Rain,80,2013-08-05 22:53:00
6:32 PM,82.4,77.0,84,29.97,10.0,SE,3.5,-,0.00,,Partly Cloudy,130,2013-08-05 23:32:00
6:53 PM,82.0,75.9,82,29.96,10.0,South,4.6,-,0.00,,Clear,170,2013-08-05 23:53:00
7:22 PM,80.6,75.2,84,29.98,10.0,SW,6.9,-,N/A,Thunderstorm,Thunderstorm,220,2013-08-06 00:22:00
7:36 PM,80.6,75.2,84,29.97,10.0,SSW,4.6,-,N/A,,Partly Cloudy,210,2013-08-06 00:36:00
7:53 PM,79.0,75.9,90,29.95,9.0,SSW,8.1,-,N/A,,Partly Cloudy,210,2013-08-06 00:53:00
8:53 PM,77.0,73.9,90,29.95,10.0,SSW,4.6,-,N/A,,Clear,210,2013-08-06 01:53:00
9:53 PM,77.0,75.0,94,29.95,7.0,SSW,4.6,-,N/A,,Clear,200,2013-08-06 02:53:00
10:08 PM,77.0,75.2,94,29.97,6.0,SW,5.8,-,N/A,,Scattered Clouds,220,2013-08-06 03:08:00
10:24 PM,77.0,75.2,94,29.97,6.0,SSW,6.9,-,N/A,,Mostly Cloudy,210,2013-08-06 03:24:00
10:37 PM,75.2,73.4,94,29.96,7.0,SSW,5.8,-,N/A,,Scattered Clouds,210,2013-08-06 03:37:00
10:53 PM,75.9,73.9,94,29.95,7.0,SW,3.5,-,N/A,,Clear,230,2013-08-06 03:53:00
11:53 PM,75.9,73.0,91,29.94,10.0,WSW,5.8,-,N/A,,Clear,240,2013-08-06 04:53:00